Flight Track Log - Related Links

Times and Time Zones

All times are in EDT time to prevent confusion due to time zone crossing. See the QXE2326 flight status page for this flight to view local times or setup timezone preferences in your user account.

Time Position Orientation Groundspeed Altitude Reporting Facility
EDT Latitude Longitude Course Direction KTS MPH feet Rate Location/Type
Fri 04:04:20 PM 47.5436 -113.5722 86° East 329 379 25,000  Level Seattle Center
Fri 04:05:28 PM 47.5347 -113.4375 96° East 331 381 25,000  Level Salt Lake Center
Fri 04:06:29 PM 47.5286 -113.3039 94° East 329 379 25,000  Level Salt Lake Center
Fri 04:07:31 PM 47.5228 -113.1689 94° East 329 379 25,000  Level Salt Lake Center
Fri 04:08:32 PM 47.5142 -113.0086 94° East 328 377 25,000 -49 Level Salt Lake Center
Fri 04:09:00 PM 47.5478 -113.1329 86° East  Level Estimated
Fri 04:09:34 PM 47.5061 -112.8733 95° East 328 377 24,900  Level Salt Lake Center
Fri 04:10:35 PM 47.4972 -112.7358 95° East 335 386 23,100 -1,902 Descending Salt Lake Center
Fri 04:11:37 PM 47.4894 -112.5925 95° East 348 400 21,000 -2,049 Descending Salt Lake Center
Fri 04:12:38 PM 47.4819 -112.4506 94° East 348 400 18,900 -2,049 Descending Salt Lake Center
Fri 04:13:40 PM 47.4722 -112.3072 96° East 351 404 16,800 -2,098 Descending Salt Lake Center
Fri 04:14:41 PM 47.4644 -112.1658 95° East 349 402 14,600 -1,415 Descending Salt Lake Center
Fri 04:15:43 PM 47.4564 -112.0317 95° East 337 388 13,900 -1,073 Descending Salt Lake Center
Fri 04:16:44 PM 47.4478 -111.9033 96° East 285 328 12,400 -1,854 Descending Salt Lake Center
Fri 04:17:46 PM 47.4414 -111.7928 95° East 273 314 10,100 -2,146 Descending Salt Lake Center
Fri 04:18:47 PM 47.4328 -111.6778 96° East 276 318 8,000 -1,756 Descending Salt Lake Center
Fri 04:19:49 PM 47.4253 -111.5675 96° East 276 318 6,500 -1,355 Descending Salt Lake Center
Fri 04:20:51 PM 47.4197 -111.4711 95° East 259 298 5,200 -1,073 Descending Salt Lake Center
Fri 04:21:52 PM 47.4472 -111.4172 53° Northeast 196 226 4,300 -780 Descending Salt Lake Center
Fri 04:22:54 PM 47.4778 -111.3719 45° Northeast 153 176 3,600 -677 Descending Salt Lake Center
Fri 04:24:00 PM 47.4667 -111.3667 90° East  Level FlightAware Approximate
Fri 04:31:00 PM 47.4827 -111.3706 90° East  Level Estimated

Login

Don't have an account? Register now (free) for customized features, flight alerts, and more!